createdAt,value
2018-11-20T00:02:32.350Z,3.80
2018-11-20T00:05:12.438Z,3.70
2018-11-20T00:07:52.376Z,3.70
2018-11-20T00:10:32.544Z,3.70
2018-11-20T00:13:11.973Z,3.70
2018-11-20T00:15:51.962Z,3.70
2018-11-20T00:18:31.355Z,3.70
2018-11-20T00:21:10.875Z,3.70
2018-11-20T00:23:50.282Z,3.70
2018-11-20T00:26:29.679Z,3.60
2018-11-20T00:29:09.244Z,3.60
2018-11-20T00:31:48.692Z,3.60
2018-11-20T00:34:28.223Z,3.60
2018-11-20T00:37:08.455Z,3.60
2018-11-20T00:39:47.844Z,3.60
2018-11-20T00:42:28.082Z,3.60
2018-11-20T00:45:07.784Z,3.50
2018-11-20T00:47:47.392Z,3.60
2018-11-20T00:50:27.391Z,3.50
2018-11-20T00:53:06.919Z,3.60
2018-11-20T00:55:46.593Z,3.60
2018-11-20T00:58:26.663Z,3.50
2018-11-20T01:01:06.092Z,3.50
2018-11-20T01:03:47.802Z,3.50
2018-11-20T01:06:28.026Z,3.50
2018-11-20T01:09:07.381Z,3.50
2018-11-20T01:11:47.660Z,3.40
2018-11-20T01:14:27.764Z,3.40
2018-11-20T01:17:07.505Z,3.40
2018-11-20T01:19:47.610Z,3.40
2018-11-20T01:22:27.858Z,3.40
2018-11-20T01:25:07.402Z,3.30
2018-11-20T01:27:47.176Z,3.40
2018-11-20T01:30:27.301Z,3.30
2018-11-20T01:33:07.108Z,3.30
2018-11-20T01:35:46.835Z,3.30
2018-11-20T01:38:26.272Z,3.20
2018-11-20T01:41:05.509Z,3.20
2018-11-20T01:43:45.084Z,3.20
2018-11-20T01:46:25.061Z,3.20
2018-11-20T01:49:05.204Z,3.20
2018-11-20T01:51:44.919Z,3.20
2018-11-20T01:54:24.872Z,3.20
2018-11-20T01:57:04.141Z,3.20
2018-11-20T01:59:44.164Z,3.10
2018-11-20T02:02:23.676Z,3.10
2018-11-20T02:05:03.210Z,3.10
2018-11-20T02:07:43.428Z,3.10
2018-11-20T02:10:23.571Z,3.10
2018-11-20T02:13:03.367Z,3.20
2018-11-20T02:15:43.034Z,3.10
2018-11-20T02:18:23.001Z,3.10
2018-11-20T02:21:02.892Z,3.20
2018-11-20T02:23:42.498Z,3.10
2018-11-20T02:26:22.054Z,3.10
2018-11-20T02:29:01.422Z,3.10
2018-11-20T02:31:41.671Z,3.10
2018-11-20T02:34:21.588Z,3.10
2018-11-20T02:37:00.953Z,3.10
2018-11-20T02:39:40.244Z,3.00
2018-11-20T02:42:19.691Z,3.10
2018-11-20T02:44:59.397Z,3.00
2018-11-20T02:47:39.067Z,3.00
2018-11-20T02:50:18.387Z,3.00
2018-11-20T02:52:57.784Z,3.00
2018-11-20T02:55:37.757Z,3.00
2018-11-20T02:58:17.965Z,3.00
2018-11-20T03:00:58.258Z,3.00
2018-11-20T03:03:38.262Z,3.00
2018-11-20T03:06:18.218Z,3.00
2018-11-20T03:08:57.554Z,3.00
2018-11-20T03:11:37.870Z,3.00
2018-11-20T03:14:17.722Z,3.00
2018-11-20T03:16:57.138Z,3.00
2018-11-20T03:19:36.948Z,3.00
2018-11-20T03:22:16.316Z,3.00
2018-11-20T03:24:56.316Z,3.00
2018-11-20T03:27:35.894Z,3.00
2018-11-20T03:30:15.443Z,3.00
2018-11-20T03:32:54.887Z,3.00
2018-11-20T03:35:34.504Z,3.00
2018-11-20T03:38:14.725Z,3.00
2018-11-20T03:40:54.844Z,3.00
2018-11-20T03:43:34.215Z,2.90
2018-11-20T03:46:14.053Z,3.00
2018-11-20T03:48:53.901Z,2.90
2018-11-20T03:51:33.431Z,2.90
2018-11-20T03:54:13.089Z,2.90
2018-11-20T03:56:52.717Z,2.90
2018-11-20T03:59:32.652Z,2.90
2018-11-20T04:02:12.245Z,2.90
2018-11-20T04:04:52.194Z,2.90
2018-11-20T04:07:31.667Z,2.90
2018-11-20T04:10:11.616Z,2.90
2018-11-20T04:12:51.227Z,2.90
2018-11-20T04:15:31.078Z,2.90
2018-11-20T04:18:10.845Z,2.90
2018-11-20T04:20:50.594Z,2.90
2018-11-20T04:23:29.982Z,2.90
2018-11-20T04:26:09.441Z,2.90
2018-11-20T04:28:49.387Z,2.90
2018-11-20T04:31:29.549Z,2.90
2018-11-20T04:34:09.039Z,2.90
2018-11-20T04:36:48.727Z,2.90
2018-11-20T04:39:28.558Z,2.90
2018-11-20T04:42:08.773Z,2.90
2018-11-20T04:45:09.310Z,2.90
2018-11-20T07:46:21.225Z,3.00
2018-11-20T07:49:18.378Z,3.00
2018-11-20T07:52:28.103Z,3.00
2018-11-20T07:55:45.974Z,3.00
2018-11-20T07:58:41.501Z,3.00
2018-11-20T08:05:02.406Z,3.10
2018-11-20T08:08:11.584Z,3.00
2018-11-20T08:11:17.767Z,3.00
2018-11-20T08:14:24.892Z,3.00
2018-11-20T08:20:46.940Z,3.00
2018-11-20T08:23:53.420Z,3.10
2018-11-20T08:26:40.933Z,3.10
2018-11-20T08:29:28.552Z,3.10
2018-11-20T08:32:35.196Z,3.10
2018-11-20T08:35:41.542Z,3.20
2018-11-20T08:38:48.048Z,3.10
2018-11-20T08:45:20.123Z,3.10
2018-11-20T08:48:26.689Z,3.20
2018-11-20T08:51:33.304Z,3.20
2018-11-20T08:54:21.674Z,3.20
2018-11-20T08:57:28.190Z,3.20
2018-11-20T09:03:50.101Z,3.30
2018-11-20T09:06:56.533Z,3.30
2018-11-20T09:10:24.109Z,3.20
2018-11-20T09:13:12.799Z,3.20
2018-11-20T09:16:10.310Z,3.20
2018-11-20T09:19:16.865Z,3.20
2018-11-20T09:25:48.701Z,3.20
2018-11-20T09:28:54.771Z,3.20
2018-11-20T09:32:01.163Z,3.20
2018-11-20T09:34:55.895Z,3.30
2018-11-20T09:37:57.535Z,3.30
2018-11-20T11:09:24.006Z,3.60
2018-11-20T11:12:30.546Z,3.60
2018-11-20T12:09:48.675Z,3.40
2018-11-20T12:13:06.034Z,3.40
2018-11-20T12:19:31.465Z,3.30
2018-11-20T12:22:39.061Z,3.30
2018-11-20T12:25:45.484Z,3.30
2018-11-20T12:28:53.025Z,3.30
2018-11-20T12:31:58.141Z,3.40
2018-11-20T12:35:04.635Z,3.30
2018-11-20T12:38:11.079Z,3.30
2018-11-20T12:41:18.532Z,3.30
2018-11-20T12:44:18.163Z,3.30
2018-11-20T12:47:24.641Z,3.20
2018-11-20T12:50:34.545Z,3.20
2018-11-20T12:53:41.186Z,3.30
2018-11-20T12:56:47.758Z,3.20
2018-11-20T12:59:54.261Z,3.20
2018-11-20T13:03:00.732Z,3.20
2018-11-20T13:09:20.750Z,3.10
2018-11-20T13:12:25.336Z,3.10
2018-11-20T13:15:31.941Z,3.10
2018-11-20T13:18:41.791Z,3.10
2018-11-20T13:21:49.900Z,3.10
2018-11-20T13:24:57.927Z,3.10
2018-11-20T13:28:01.789Z,3.10
2018-11-20T13:31:08.874Z,3.10
2018-11-20T13:34:20.823Z,3.10
2018-11-20T13:37:22.095Z,3.10
2018-11-20T13:40:28.829Z,3.10
2018-11-20T13:47:01.462Z,3.10
2018-11-20T13:50:07.982Z,3.10
2018-11-20T13:53:14.598Z,3.10
2018-11-20T13:56:21.288Z,3.10
2018-11-20T14:02:53.769Z,3.00
2018-11-20T14:05:59.738Z,2.90
2018-11-20T14:09:20.641Z,2.90
2018-11-20T14:12:13.448Z,2.80
2018-11-20T14:15:20.153Z,2.70
2018-11-20T14:18:26.704Z,2.70
2018-11-20T14:21:32.828Z,2.70
2018-11-20T14:24:20.644Z,2.70
2018-11-20T14:27:27.084Z,2.70
2018-11-20T14:30:33.456Z,2.70
2018-11-20T14:46:03.739Z,2.60
2018-11-20T14:51:58.455Z,2.60
2018-11-20T14:54:57.862Z,2.50
2018-11-20T14:58:00.133Z,2.60
2018-11-20T15:00:55.545Z,2.50
2018-11-20T15:03:52.287Z,2.50
2018-11-20T15:06:35.616Z,2.50
2018-11-20T15:09:18.330Z,2.50
2018-11-20T15:12:16.925Z,2.50
2018-11-20T15:15:04.751Z,2.40
2018-11-20T15:21:03.562Z,2.50
2018-11-20T15:26:54.703Z,2.40
2018-11-20T15:30:01.427Z,2.50
2018-11-20T15:32:57.960Z,2.50
2018-11-20T15:36:14.618Z,2.50
2018-11-20T15:39:03.523Z,2.50
2018-11-20T15:42:06.843Z,2.50
2018-11-20T15:51:19.647Z,2.50
2018-11-20T15:56:59.398Z,2.50
2018-11-20T15:59:52.578Z,2.50
2018-11-20T16:02:35.354Z,2.60
2018-11-20T16:05:28.506Z,2.60
2018-11-20T16:08:17.671Z,2.70
2018-11-20T16:11:41.500Z,2.70
2018-11-20T16:13:45.814Z,2.70
2018-11-20T16:16:36.550Z,2.60
2018-11-20T16:19:23.403Z,2.70
2018-11-20T16:22:23.013Z,2.70
2018-11-20T16:25:56.723Z,2.70
2018-11-20T16:28:32.873Z,2.70
2018-11-20T16:31:30.241Z,2.60
2018-11-20T16:37:42.181Z,2.60
2018-11-20T16:43:45.719Z,2.60
2018-11-20T16:49:39.946Z,2.50
2018-11-20T16:52:34.692Z,2.50
2018-11-20T16:55:35.190Z,2.50
2018-11-20T17:05:16.130Z,2.60
2018-11-20T17:08:14.415Z,2.60
2018-11-20T17:11:05.964Z,2.60
2018-11-20T17:14:03.109Z,2.60
2018-11-20T17:20:01.706Z,2.60
2018-11-20T17:22:58.657Z,2.60
2018-11-20T17:25:43.975Z,2.60
2018-11-20T17:28:27.694Z,2.70
2018-11-20T17:31:23.074Z,2.70
2018-11-20T17:34:09.364Z,2.70
2018-11-20T17:36:55.013Z,2.70
2018-11-20T17:39:40.360Z,2.70
2018-11-20T17:42:39.582Z,2.60
2018-11-20T17:45:26.823Z,2.60
2018-11-20T17:48:17.000Z,2.60
2018-11-20T17:51:05.094Z,2.60
2018-11-20T17:53:51.057Z,2.60
2018-11-20T17:56:52.926Z,2.60
2018-11-20T17:59:48.875Z,2.70
2018-11-20T18:02:34.450Z,2.70
2018-11-20T18:05:20.741Z,2.60
2018-11-20T18:08:06.275Z,2.70
2018-11-20T18:10:51.603Z,2.60
2018-11-20T18:13:37.151Z,2.60
2018-11-20T18:16:22.982Z,2.60
2018-11-20T18:19:03.477Z,2.60
2018-11-20T18:21:56.400Z,2.60
2018-11-20T18:24:43.588Z,2.60
2018-11-20T18:27:29.524Z,2.60
2018-11-20T18:30:15.036Z,2.70
2018-11-20T18:33:11.180Z,2.70
2018-11-20T18:35:47.197Z,2.70
2018-11-20T18:38:25.388Z,2.70
2018-11-20T18:41:11.114Z,2.80
2018-11-20T18:43:53.712Z,2.70
2018-11-20T18:46:39.616Z,2.80
2018-11-20T18:49:25.272Z,2.70
2018-11-20T18:52:12.961Z,2.70
2018-11-20T18:54:58.516Z,2.80
2018-11-20T18:57:39.093Z,2.80
2018-11-20T19:00:17.243Z,2.80
2018-11-20T19:03:09.909Z,2.70
2018-11-20T19:05:56.898Z,2.70
2018-11-20T19:08:37.769Z,2.70
2018-11-20T19:11:23.552Z,2.80
2018-11-20T19:14:06.340Z,2.70
2018-11-20T19:16:51.796Z,2.70
2018-11-20T19:19:56.792Z,2.70
2018-11-20T19:22:46.759Z,2.70
2018-11-20T19:25:38.364Z,2.80
2018-11-20T19:28:31.419Z,2.70
2018-11-20T19:31:18.609Z,2.80
2018-11-20T19:34:03.934Z,2.80
2018-11-20T19:36:42.782Z,2.80
2018-11-20T19:39:29.947Z,2.70
2018-11-20T19:42:12.882Z,2.70
2018-11-20T19:44:52.115Z,2.70
2018-11-20T19:47:48.451Z,2.70
2018-11-20T19:50:33.984Z,2.70
2018-11-20T19:53:24.598Z,2.70
2018-11-20T19:56:10.546Z,2.70
2018-11-20T19:58:56.099Z,2.70
2018-11-20T20:02:00.987Z,2.70
2018-11-20T20:04:46.805Z,2.70
2018-11-20T20:07:40.037Z,2.70
2018-11-20T20:10:21.537Z,2.70
2018-11-20T20:13:07.754Z,2.70
2018-11-20T20:15:49.832Z,2.70
2018-11-20T20:18:43.182Z,2.70
2018-11-20T20:21:31.457Z,2.80
2018-11-20T20:24:17.094Z,2.70
2018-11-20T20:27:20.471Z,2.70
2018-11-20T20:30:08.421Z,2.60
2018-11-20T20:32:58.351Z,2.60
2018-11-20T20:35:45.564Z,2.60
2018-11-20T20:38:23.824Z,2.70
2018-11-20T20:41:08.472Z,2.60
2018-11-20T20:43:54.162Z,2.70
2018-11-20T20:46:46.916Z,2.70
2018-11-20T20:49:21.901Z,2.70
2018-11-20T20:52:06.257Z,2.70
2018-11-20T20:54:55.636Z,2.70
2018-11-20T20:57:49.710Z,2.70
2018-11-20T21:00:39.690Z,2.70
2018-11-20T21:03:18.260Z,2.70
2018-11-20T21:06:03.931Z,2.70
2018-11-20T21:08:48.081Z,2.70
2018-11-20T21:11:37.985Z,2.70
2018-11-20T21:14:23.843Z,2.70
2018-11-20T21:17:03.223Z,2.70
2018-11-20T21:19:44.726Z,2.70
2018-11-20T21:22:31.913Z,2.80
2018-11-20T21:25:17.819Z,2.80
2018-11-20T21:28:13.569Z,2.80
2018-11-20T21:30:55.497Z,2.80
2018-11-20T21:33:33.533Z,2.80
2018-11-20T21:36:12.238Z,2.80
2018-11-20T21:38:53.493Z,2.70
2018-11-20T21:41:39.315Z,2.70
2018-11-20T21:44:21.667Z,2.70
2018-11-20T21:47:01.475Z,2.70
2018-11-20T21:49:45.058Z,2.70
2018-11-20T21:52:38.203Z,2.60
2018-11-20T21:55:16.658Z,2.70
2018-11-20T21:58:02.023Z,2.70
2018-11-20T22:00:51.596Z,2.70
2018-11-20T22:03:57.125Z,2.70
2018-11-20T22:06:47.232Z,2.70
2018-11-20T22:09:33.283Z,2.70
2018-11-20T22:12:10.590Z,2.70
2018-11-20T22:14:54.384Z,2.70
2018-11-20T22:17:40.312Z,2.70
2018-11-20T22:20:35.343Z,2.60
2018-11-20T22:23:21.132Z,2.60
2018-11-20T22:26:17.302Z,2.60
2018-11-20T22:29:02.761Z,2.60
2018-11-20T22:31:48.192Z,2.60
2018-11-20T22:34:30.024Z,2.60
2018-11-20T22:37:10.315Z,2.60
2018-11-20T22:39:45.231Z,2.60
2018-11-20T22:42:24.589Z,2.60
2018-11-20T22:45:10.472Z,2.60
2018-11-20T22:47:52.817Z,2.60
2018-11-20T22:50:32.373Z,2.60
2018-11-20T22:53:17.728Z,2.60
2018-11-20T22:56:16.813Z,2.50
2018-11-20T22:59:02.585Z,2.50
2018-11-20T23:01:45.869Z,2.50
2018-11-20T23:04:31.394Z,2.60
2018-11-20T23:07:17.340Z,2.60
2018-11-20T23:09:45.538Z,2.60
2018-11-20T23:12:13.938Z,2.60
2018-11-20T23:14:42.268Z,2.60
2018-11-20T23:17:10.445Z,2.60
2018-11-20T23:19:38.647Z,2.60
2018-11-20T23:22:06.926Z,2.50
2018-11-20T23:24:35.204Z,2.50
2018-11-20T23:27:03.385Z,2.50
2018-11-20T23:29:31.629Z,2.50
2018-11-20T23:31:59.805Z,2.50
2018-11-20T23:34:27.989Z,2.50
2018-11-20T23:36:56.145Z,2.60
2018-11-20T23:39:24.329Z,2.50
2018-11-20T23:41:52.510Z,2.60
2018-11-20T23:44:20.805Z,2.50
2018-11-20T23:46:48.961Z,2.60
2018-11-20T23:49:17.137Z,2.60
2018-11-20T23:51:45.400Z,2.50
2018-11-20T23:54:13.613Z,2.50
2018-11-20T23:56:41.892Z,2.60
2018-11-20T23:59:10.161Z,2.60
